createdAt,value
2023-04-21T00:00:11.727Z,25.89
2023-04-21T00:01:11.682Z,25.89
2023-04-21T00:02:11.691Z,25.88
2023-04-21T00:03:11.733Z,25.92
2023-04-21T00:04:11.776Z,25.89
2023-04-21T00:05:11.686Z,25.89
2023-04-21T00:06:11.489Z,25.89
2023-04-21T00:07:11.468Z,25.87
2023-04-21T00:08:11.432Z,25.88
2023-04-21T00:09:11.405Z,25.88
2023-04-21T00:10:11.384Z,25.88
2023-04-21T00:11:11.341Z,25.87
2023-04-21T00:12:11.282Z,25.89
2023-04-21T00:13:11.259Z,25.87
2023-04-21T00:14:11.205Z,25.89
2023-04-21T00:15:11.172Z,25.85
2023-04-21T00:16:11.221Z,25.88
2023-04-21T00:17:11.122Z,25.85
2023-04-21T00:18:11.080Z,25.89
2023-04-21T00:19:11.055Z,25.88
2023-04-21T00:20:11.015Z,25.87
2023-04-21T00:21:11.003Z,25.87
2023-04-21T00:22:10.990Z,25.87
2023-04-21T00:23:10.986Z,25.89
2023-04-21T00:24:10.951Z,25.87
2023-04-21T00:25:10.904Z,25.85
2023-04-21T00:26:10.937Z,25.88
2023-04-21T00:27:10.917Z,25.88
2023-04-21T00:28:10.905Z,25.87
2023-04-21T00:29:10.894Z,25.85
2023-04-21T00:30:10.874Z,25.88
2023-04-21T00:31:10.900Z,25.87
2023-04-21T00:32:10.855Z,25.85
2023-04-21T00:33:10.877Z,25.87
2023-04-21T00:34:10.829Z,25.87
2023-04-21T00:35:10.826Z,25.85
2023-04-21T00:36:10.825Z,25.85
2023-04-21T00:37:10.814Z,25.87
2023-04-21T00:38:10.809Z,25.85
2023-04-21T00:39:10.789Z,25.87
2023-04-21T00:40:10.812Z,25.87
2023-04-21T00:41:10.780Z,25.85
2023-04-21T00:42:12.602Z,25.87
2023-04-21T00:43:10.725Z,25.87
2023-04-21T00:44:10.713Z,25.87
2023-04-21T00:45:10.708Z,25.87
2023-04-21T00:46:10.707Z,25.87
2023-04-21T00:47:10.758Z,25.87
2023-04-21T00:48:10.650Z,25.87
2023-04-21T00:49:10.677Z,25.85
2023-04-21T00:50:10.636Z,25.87
2023-04-21T00:51:10.579Z,25.87
2023-04-21T00:52:10.616Z,25.85
2023-04-21T00:53:10.598Z,25.87
2023-04-21T00:54:10.578Z,25.84
2023-04-21T00:55:10.569Z,25.85
2023-04-21T00:56:10.564Z,25.85
2023-04-21T00:57:10.564Z,25.85
2023-04-21T00:58:10.550Z,25.84
2023-04-21T00:59:10.536Z,25.84
2023-04-21T01:00:10.574Z,25.84
2023-04-21T01:01:10.574Z,25.84
2023-04-21T01:02:10.645Z,25.82
2023-04-21T01:03:10.661Z,25.85
2023-04-21T01:04:10.652Z,25.85
2023-04-21T01:05:10.485Z,25.87
2023-04-21T01:06:10.492Z,25.84
2023-04-21T01:07:10.455Z,25.84
2023-04-21T01:08:10.430Z,25.82
2023-04-21T01:09:10.428Z,25.82
2023-04-21T01:10:10.431Z,25.84
2023-04-21T01:11:10.381Z,25.85
2023-04-21T01:12:10.428Z,25.82
2023-04-21T01:13:10.411Z,25.82
2023-04-21T01:14:10.350Z,25.85
2023-04-21T01:15:10.380Z,25.85
2023-04-21T01:16:10.374Z,25.84
2023-04-21T01:17:10.365Z,25.87
2023-04-21T01:18:10.355Z,25.82
2023-04-21T01:19:10.302Z,25.82
2023-04-21T01:20:10.343Z,25.84
2023-04-21T01:21:10.297Z,25.82
2023-04-21T01:22:10.316Z,25.87
2023-04-21T01:23:10.289Z,25.84
2023-04-21T01:24:10.302Z,25.84
2023-04-21T01:25:10.243Z,25.84
2023-04-21T01:26:10.282Z,25.82
2023-04-21T01:27:10.227Z,25.82
2023-04-21T01:28:10.216Z,25.81
2023-04-21T01:29:10.221Z,25.82
2023-04-21T01:30:10.286Z,25.81
2023-04-21T01:31:10.223Z,25.84
2023-04-21T01:32:10.250Z,25.87
2023-04-21T01:33:10.253Z,25.84
2023-04-21T01:34:10.149Z,25.85
2023-04-21T01:35:10.184Z,25.82
2023-04-21T01:36:10.119Z,25.84
2023-04-21T01:37:10.102Z,25.87
2023-04-21T01:38:10.089Z,25.89
2023-04-21T01:39:10.091Z,25.89
2023-04-21T01:40:10.058Z,25.87
2023-04-21T01:41:10.089Z,25.91
2023-04-21T01:42:10.185Z,25.92
2023-04-21T01:43:10.338Z,25.92
2023-04-21T01:44:10.226Z,25.94
2023-04-21T01:45:10.034Z,25.94
2023-04-21T01:46:10.050Z,25.98
2023-04-21T01:47:10.052Z,26.02
2023-04-21T01:48:10.006Z,26.04
2023-04-21T01:49:09.981Z,26.05
2023-04-21T01:50:10.021Z,26.06
2023-04-21T01:51:09.935Z,26.08
2023-04-21T01:52:09.925Z,26.14
2023-04-21T01:53:09.904Z,26.15
2023-04-21T01:54:09.916Z,26.18
2023-04-21T01:55:09.897Z,26.18
2023-04-21T01:56:09.872Z,26.21
2023-04-21T01:57:09.913Z,26.22
2023-04-21T01:58:09.822Z,26.26
2023-04-21T01:59:09.844Z,26.28
2023-04-21T02:00:09.876Z,26.29
2023-04-21T02:01:09.906Z,26.32
2023-04-21T02:02:09.949Z,26.32
2023-04-21T02:03:09.962Z,26.36
2023-04-21T02:04:09.883Z,26.39
2023-04-21T02:05:09.859Z,26.40
2023-04-21T02:06:09.803Z,26.39
2023-04-21T02:07:09.787Z,26.43
2023-04-21T02:08:09.790Z,26.43
2023-04-21T02:09:09.798Z,26.45
2023-04-21T02:10:09.781Z,26.46
2023-04-21T02:11:09.805Z,26.47
2023-04-21T02:12:09.806Z,26.50
2023-04-21T02:13:09.878Z,26.50
2023-04-21T02:14:09.812Z,26.53
2023-04-21T02:15:09.787Z,26.53
2023-04-21T02:16:14.034Z,26.52
2023-04-21T02:17:09.760Z,26.54
2023-04-21T02:18:09.779Z,26.57
2023-04-21T02:19:09.637Z,26.57
2023-04-21T02:20:09.562Z,26.57
2023-04-21T02:21:09.537Z,26.57
2023-04-21T02:22:09.462Z,26.57
2023-04-21T02:23:09.419Z,26.60
2023-04-21T02:24:09.384Z,26.59
2023-04-21T02:25:09.334Z,26.63
2023-04-21T02:26:09.278Z,26.62
2023-04-21T02:27:09.254Z,26.64
2023-04-21T02:28:09.214Z,26.62
2023-04-21T02:29:09.140Z,26.66
2023-04-21T02:30:09.076Z,26.66
2023-04-21T02:31:09.088Z,26.66
2023-04-21T02:33:08.934Z,26.66
2023-04-21T02:34:08.948Z,26.70
2023-04-21T02:35:08.989Z,26.70
2023-04-21T02:36:08.940Z,26.70
2023-04-21T02:37:08.949Z,26.69
2023-04-21T02:38:08.947Z,26.70
2023-04-21T02:39:08.922Z,26.72
2023-04-21T02:40:08.878Z,26.72
2023-04-21T02:41:08.901Z,26.72
2023-04-21T02:42:08.878Z,26.73
2023-04-21T02:43:08.894Z,26.73
2023-04-21T02:44:08.914Z,26.74
2023-04-21T02:45:08.889Z,26.74
2023-04-21T02:46:08.914Z,26.79
2023-04-21T02:47:08.893Z,26.76
2023-04-21T02:48:08.923Z,26.77
2023-04-21T02:49:08.942Z,26.77
2023-04-21T02:50:08.921Z,26.79
2023-04-21T02:51:08.922Z,26.79
2023-04-21T02:52:08.911Z,26.77
2023-04-21T02:53:08.922Z,26.80
2023-04-21T02:54:08.940Z,26.83
2023-04-21T02:55:08.915Z,26.80
2023-04-21T02:56:08.946Z,26.79
2023-04-21T02:57:08.917Z,26.82
2023-04-21T02:58:08.903Z,26.82
2023-04-21T02:59:08.941Z,26.82
2023-04-21T03:00:08.940Z,26.83
2023-04-21T03:01:08.993Z,26.83
2023-04-21T03:02:08.956Z,26.82
2023-04-21T03:03:09.046Z,26.84
2023-04-21T03:04:09.129Z,26.86
2023-04-21T03:05:08.940Z,26.86
2023-04-21T03:06:08.946Z,26.84
2023-04-21T03:07:08.926Z,26.87
2023-04-21T03:08:08.951Z,26.86
2023-04-21T03:09:08.972Z,26.89
2023-04-21T03:10:08.950Z,26.89
2023-04-21T03:11:08.959Z,26.89
2023-04-21T03:12:08.942Z,26.87
2023-04-21T03:13:08.943Z,26.90
2023-04-21T03:14:08.954Z,26.90
2023-04-21T03:15:08.939Z,26.90
2023-04-21T03:16:08.957Z,26.91
2023-04-21T03:17:08.937Z,26.90
2023-04-21T03:18:09.026Z,26.90
2023-04-21T03:19:08.941Z,26.93
2023-04-21T03:20:08.957Z,26.93
2023-04-21T03:21:08.919Z,26.93
2023-04-21T03:22:08.929Z,26.93
2023-04-21T03:23:08.932Z,26.94
2023-04-21T03:24:08.906Z,26.93
2023-04-21T03:25:08.956Z,26.94
2023-04-21T03:26:08.940Z,26.94
2023-04-21T03:27:10.898Z,26.93
2023-04-21T03:28:08.948Z,26.94
2023-04-21T03:29:08.951Z,26.95
2023-04-21T03:30:08.936Z,26.97
2023-04-21T03:31:08.936Z,26.94
2023-04-21T03:32:08.940Z,26.94
2023-04-21T03:33:09.011Z,26.98
2023-04-21T03:34:08.889Z,26.97
2023-04-21T03:35:08.941Z,26.95
2023-04-21T03:36:08.861Z,26.98
2023-04-21T03:37:08.845Z,26.97
2023-04-21T03:38:08.921Z,26.98
2023-04-21T03:39:19.254Z,26.98
2023-04-21T03:40:09.809Z,27.00
2023-04-21T03:41:08.757Z,26.95
2023-04-21T03:42:08.693Z,27.00
2023-04-21T03:43:08.686Z,27.01
2023-04-21T03:44:08.654Z,27.00
2023-04-21T03:45:08.571Z,27.01
2023-04-21T03:46:08.579Z,27.03
2023-04-21T03:47:08.487Z,27.01
2023-04-21T03:48:08.528Z,27.01
2023-04-21T03:49:08.408Z,27.05
2023-04-21T03:50:08.322Z,27.01
2023-04-21T03:51:08.284Z,27.01
2023-04-21T03:52:08.257Z,27.03
2023-04-21T03:53:08.192Z,27.01
2023-04-21T03:54:08.214Z,27.04
2023-04-21T03:55:08.174Z,27.01
2023-04-21T03:56:08.180Z,27.04
2023-04-21T03:57:08.159Z,27.04
2023-04-21T03:58:08.119Z,27.05
2023-04-21T03:59:08.127Z,27.07
2023-04-21T04:00:08.119Z,27.05
2023-04-21T04:01:08.734Z,27.07
2023-04-21T04:02:08.201Z,27.08
2023-04-21T04:03:08.198Z,27.07
2023-04-21T04:04:08.252Z,27.07
2023-04-21T04:05:08.094Z,27.05
2023-04-21T04:06:08.045Z,27.08
2023-04-21T04:07:08.029Z,27.07
2023-04-21T04:08:07.986Z,27.05
2023-04-21T04:09:08.003Z,27.08
2023-04-21T04:10:07.983Z,27.07
2023-04-21T04:11:07.950Z,27.08
2023-04-21T04:12:09.106Z,27.08
2023-04-21T04:13:08.053Z,27.08
2023-04-21T04:14:08.021Z,27.10
2023-04-21T04:15:08.038Z,27.11
2023-04-21T04:16:08.043Z,27.10
2023-04-21T04:17:07.994Z,27.10
2023-04-21T04:18:08.074Z,27.15
2023-04-21T04:19:07.962Z,27.11
2023-04-21T04:20:07.926Z,27.13
2023-04-21T04:21:07.911Z,27.13
2023-04-21T04:22:07.912Z,27.13
2023-04-21T04:23:07.904Z,27.13
2023-04-21T04:24:07.873Z,27.11
2023-04-21T04:25:07.882Z,27.13
2023-04-21T04:26:07.860Z,27.13
2023-04-21T04:27:07.859Z,27.14
2023-04-21T04:28:07.815Z,27.11
2023-04-21T04:29:07.804Z,27.14
2023-04-21T04:30:07.771Z,27.17
2023-04-21T04:31:07.850Z,27.15
2023-04-21T04:32:07.745Z,27.15
2023-04-21T04:33:07.755Z,27.15
2023-04-21T04:34:07.695Z,27.15
2023-04-21T04:35:07.683Z,27.15
2023-04-21T04:36:07.651Z,27.14
2023-04-21T04:37:07.617Z,27.17
2023-04-21T04:38:07.621Z,27.15
2023-04-21T04:39:09.329Z,27.14
2023-04-21T04:40:07.663Z,27.15
2023-04-21T04:41:07.595Z,27.15
2023-04-21T04:42:07.591Z,27.18
2023-04-21T04:43:07.539Z,27.15
2023-04-21T04:44:07.527Z,27.17
2023-04-21T04:45:07.533Z,27.18
2023-04-21T04:46:07.537Z,27.17
2023-04-21T04:47:07.557Z,27.18
2023-04-21T04:48:07.489Z,27.20
2023-04-21T04:49:07.422Z,27.17
2023-04-21T04:50:07.415Z,27.20
2023-04-21T04:51:07.402Z,27.20
2023-04-21T04:52:07.335Z,27.15
2023-04-21T04:53:07.315Z,27.17
2023-04-21T04:54:07.326Z,27.18
2023-04-21T04:55:07.307Z,27.17
2023-04-21T04:56:07.228Z,27.18
2023-04-21T04:57:07.228Z,27.18
2023-04-21T04:58:07.234Z,27.18
2023-04-21T04:59:07.193Z,27.18
2023-04-21T05:00:07.138Z,27.17
2023-04-21T05:01:14.232Z,27.14
2023-04-21T05:02:07.178Z,27.17
2023-04-21T05:03:07.092Z,27.17
2023-04-21T05:04:07.243Z,27.17
2023-04-21T05:05:07.150Z,27.17
2023-04-21T05:06:06.900Z,27.14
2023-04-21T05:07:06.847Z,27.15
2023-04-21T05:08:06.822Z,27.15
2023-04-21T05:09:06.758Z,27.17
2023-04-21T05:10:06.724Z,27.17
2023-04-21T05:11:06.666Z,27.18
2023-04-21T05:12:06.653Z,27.18
2023-04-21T05:13:06.590Z,27.18
2023-04-21T05:14:06.526Z,27.15
2023-04-21T05:15:06.471Z,27.15
2023-04-21T05:16:06.463Z,27.14
2023-04-21T05:17:06.374Z,27.17
2023-04-21T05:18:06.390Z,27.17
2023-04-21T05:19:06.289Z,27.15
2023-04-21T05:20:06.237Z,27.15
2023-04-21T05:21:06.154Z,27.15
2023-04-21T05:22:06.109Z,27.17
2023-04-21T05:23:06.108Z,27.15
2023-04-21T05:24:06.115Z,27.13
2023-04-21T05:25:06.030Z,27.15
2023-04-21T05:26:05.989Z,27.14
2023-04-21T05:27:05.940Z,27.15
2023-04-21T05:28:05.912Z,27.15
2023-04-21T05:29:05.842Z,27.17
2023-04-21T05:30:05.790Z,27.14
2023-04-21T05:31:05.713Z,27.13
2023-04-21T05:32:05.772Z,27.04
2023-04-21T05:33:05.680Z,26.67
2023-04-21T05:34:05.804Z,26.28
2023-04-21T05:35:05.543Z,25.92
2023-04-21T05:36:05.530Z,25.51
2023-04-21T05:37:05.487Z,25.10
2023-04-21T05:38:05.456Z,24.72
2023-04-21T05:39:05.475Z,24.39
2023-04-21T05:40:05.473Z,24.31
2023-04-21T05:41:05.469Z,24.24
2023-04-21T05:42:05.522Z,24.27
2023-04-21T05:43:05.542Z,24.34
2023-04-21T05:44:05.549Z,24.45
2023-04-21T05:45:05.537Z,24.58
2023-04-21T05:46:12.793Z,24.68
2023-04-21T05:47:05.532Z,24.82
2023-04-21T05:48:05.580Z,24.97
2023-04-21T05:49:05.796Z,25.10
2023-04-21T05:50:05.443Z,25.23
2023-04-21T05:51:05.411Z,25.33
2023-04-21T05:52:05.370Z,25.45
2023-04-21T05:53:05.333Z,25.55
2023-04-21T05:54:05.298Z,25.67
2023-04-21T05:55:05.290Z,25.75
2023-04-21T05:56:05.209Z,25.85
2023-04-21T05:57:05.160Z,25.91
2023-04-21T05:58:05.085Z,25.98
2023-04-21T05:59:05.057Z,26.04
2023-04-21T06:00:05.010Z,26.08
2023-04-21T06:01:04.929Z,26.11
2023-04-21T06:02:04.987Z,26.16
2023-04-21T06:03:04.967Z,26.21
2023-04-21T06:04:04.940Z,26.22
2023-04-21T06:05:04.905Z,26.28
2023-04-21T06:06:04.722Z,26.28
2023-04-21T06:07:04.664Z,26.32
2023-04-21T06:08:04.599Z,26.33
2023-04-21T06:09:04.558Z,26.29
2023-04-21T06:10:04.519Z,26.35
2023-04-21T06:11:04.446Z,26.33
2023-04-21T06:12:04.407Z,26.36
2023-04-21T06:13:04.377Z,26.36
2023-04-21T06:14:04.310Z,26.38
2023-04-21T06:15:04.261Z,26.38
2023-04-21T06:16:04.226Z,26.39
2023-04-21T06:17:04.227Z,26.39
2023-04-21T06:18:04.166Z,26.42
2023-04-21T06:19:04.169Z,26.42
2023-04-21T06:20:04.065Z,26.46
2023-04-21T06:21:04.098Z,26.46
2023-04-21T06:22:04.055Z,26.50
2023-04-21T06:23:04.037Z,26.52
2023-04-21T06:24:04.001Z,26.54
2023-04-21T06:25:03.978Z,26.54
2023-04-21T06:26:03.946Z,26.56
2023-04-21T06:27:03.923Z,26.57
2023-04-21T06:28:03.896Z,26.56
2023-04-21T06:29:03.869Z,26.57
2023-04-21T06:30:03.861Z,26.60
2023-04-21T06:31:04.833Z,26.62
2023-04-21T06:32:03.803Z,26.64
2023-04-21T06:33:03.745Z,26.70
2023-04-21T06:34:03.677Z,26.70
2023-04-21T06:35:03.661Z,26.74
2023-04-21T06:36:03.640Z,26.74
2023-04-21T06:37:03.587Z,26.76
2023-04-21T06:38:03.552Z,26.82
2023-04-21T06:39:03.492Z,26.84
2023-04-21T06:40:03.503Z,26.90
2023-04-21T06:41:03.462Z,26.90
2023-04-21T06:42:03.416Z,26.94
2023-04-21T06:43:03.372Z,26.93
2023-04-21T06:44:03.315Z,26.94
2023-04-21T06:45:03.328Z,26.94
2023-04-21T06:46:03.298Z,26.97
2023-04-21T06:47:03.276Z,26.95
2023-04-21T06:48:03.326Z,26.91
2023-04-21T06:49:03.168Z,26.91
2023-04-21T06:50:03.158Z,26.90
2023-04-21T06:51:03.176Z,26.91
2023-04-21T06:52:03.080Z,26.94
2023-04-21T06:53:03.072Z,26.93
2023-04-21T06:54:03.017Z,26.95
2023-04-21T06:55:02.975Z,27.00
2023-04-21T06:56:02.946Z,27.03
2023-04-21T06:57:02.935Z,27.04
2023-04-21T06:58:02.909Z,27.05
2023-04-21T06:59:02.856Z,27.08
2023-04-21T07:00:02.807Z,27.10
2023-04-21T07:01:02.858Z,27.14
2023-04-21T07:02:02.775Z,27.15
2023-04-21T07:03:02.802Z,27.18
2023-04-21T07:04:02.777Z,27.18
2023-04-21T07:05:02.644Z,27.20
2023-04-21T07:06:02.643Z,27.21
2023-04-21T07:07:03.491Z,27.21
2023-04-21T07:08:02.562Z,27.24
2023-04-21T07:09:02.537Z,27.24
2023-04-21T07:10:02.823Z,27.27
2023-04-21T07:11:02.440Z,27.28
2023-04-21T07:12:02.425Z,27.31
2023-04-21T07:13:02.396Z,27.31
2023-04-21T07:14:02.355Z,27.33
2023-04-21T07:15:02.354Z,27.34
2023-04-21T07:16:02.298Z,27.34
2023-04-21T07:17:02.321Z,27.34
2023-04-21T07:18:02.286Z,27.33
2023-04-21T07:19:02.212Z,27.37
2023-04-21T07:20:02.166Z,27.38
2023-04-21T07:21:02.130Z,27.38
2023-04-21T07:22:02.151Z,27.38
2023-04-21T07:23:02.115Z,27.37
2023-04-21T07:24:02.072Z,27.38
2023-04-21T07:25:02.031Z,27.40
2023-04-21T07:26:02.043Z,27.40
2023-04-21T07:27:02.036Z,27.41
2023-04-21T07:28:01.952Z,27.41
2023-04-21T07:29:01.926Z,27.45
2023-04-21T07:30:01.902Z,27.44
2023-04-21T07:31:03.789Z,27.46
2023-04-21T07:32:02.046Z,27.41
2023-04-21T07:33:01.861Z,27.25
2023-04-21T07:34:01.785Z,26.91
2023-04-21T07:35:01.855Z,26.64
2023-04-21T07:36:01.827Z,26.49
2023-04-21T07:37:01.756Z,26.42
2023-04-21T07:38:01.742Z,26.39
2023-04-21T07:39:01.778Z,26.43
2023-04-21T07:40:01.794Z,26.46
2023-04-21T07:41:02.058Z,26.50
2023-04-21T07:42:01.738Z,26.57
2023-04-21T07:43:01.728Z,26.62
2023-04-21T07:44:01.761Z,26.67
2023-04-21T07:45:01.852Z,26.72
2023-04-21T07:46:01.811Z,26.79
2023-04-21T07:47:01.743Z,26.84
2023-04-21T07:48:01.828Z,26.87
2023-04-21T07:49:03.781Z,26.91
2023-04-21T07:50:01.697Z,26.94
2023-04-21T07:51:01.757Z,26.97
2023-04-21T07:52:01.802Z,27.04
2023-04-21T07:53:01.683Z,27.05
2023-04-21T07:54:03.701Z,27.11
2023-04-21T07:55:01.653Z,27.14
2023-04-21T07:56:01.601Z,27.17
2023-04-21T07:57:01.572Z,27.20
2023-04-21T07:58:01.534Z,27.23
2023-04-21T07:59:01.560Z,27.23
2023-04-21T08:00:01.555Z,27.21
2023-04-21T08:01:01.498Z,27.20
2023-04-21T08:02:01.553Z,27.14
2023-04-21T08:03:01.528Z,27.04
2023-04-21T08:04:01.666Z,26.91
2023-04-21T08:05:01.641Z,26.82
2023-04-21T08:06:01.654Z,26.79
2023-04-21T08:07:02.016Z,26.76
2023-04-21T08:08:01.457Z,26.73
2023-04-21T08:09:01.488Z,26.69
2023-04-21T08:10:01.479Z,26.67
2023-04-21T08:11:01.483Z,26.69
2023-04-21T08:12:01.482Z,26.73
2023-04-21T08:13:01.523Z,26.77
2023-04-21T08:14:01.528Z,26.82
2023-04-21T08:15:01.596Z,26.83
2023-04-21T08:16:01.507Z,26.87
2023-04-21T08:17:01.617Z,26.90
2023-04-21T08:18:01.600Z,26.91
2023-04-21T08:19:01.536Z,26.95
2023-04-21T08:20:01.536Z,26.97
2023-04-21T08:21:01.617Z,26.98
2023-04-21T08:22:01.468Z,27.00
2023-04-21T08:23:01.517Z,27.04
2023-04-21T08:24:01.483Z,27.08
2023-04-21T08:25:01.451Z,27.13
2023-04-21T08:26:01.518Z,27.17
2023-04-21T08:27:01.416Z,27.24
2023-04-21T08:28:01.614Z,27.24
2023-04-21T08:29:03.494Z,27.25
2023-04-21T08:30:01.322Z,27.28
2023-04-21T08:31:01.347Z,27.31
2023-04-21T08:32:02.270Z,27.28
2023-04-21T08:33:01.179Z,27.17
2023-04-21T08:34:02.816Z,26.93
2023-04-21T08:35:01.070Z,26.80
2023-04-21T08:36:07.394Z,26.66
2023-04-21T08:37:02.147Z,26.56
2023-04-21T08:38:00.981Z,26.54
2023-04-21T08:39:00.983Z,26.49
2023-04-21T08:40:01.413Z,26.50
2023-04-21T08:41:00.854Z,26.49
2023-04-21T08:42:00.810Z,26.46
2023-04-21T08:43:00.761Z,26.47
2023-04-21T08:44:00.737Z,26.47
2023-04-21T08:45:00.794Z,26.49
2023-04-21T08:46:00.688Z,26.49
2023-04-21T08:47:00.642Z,26.49
2023-04-21T08:48:00.621Z,26.50
2023-04-21T08:49:00.568Z,26.50
2023-04-21T08:50:00.511Z,26.38
2023-04-21T08:51:00.465Z,26.26
2023-04-21T08:52:00.378Z,26.22
2023-04-21T08:53:00.400Z,26.26
2023-04-21T08:54:00.403Z,26.25
2023-04-21T08:55:00.342Z,26.33
2023-04-21T08:56:10.614Z,26.38
2023-04-21T08:57:11.967Z,26.45
2023-04-21T08:58:01.194Z,26.52
2023-04-21T08:59:00.158Z,26.62
2023-04-21T09:00:00.189Z,26.64
2023-04-21T09:01:00.745Z,26.73
2023-04-21T09:02:00.128Z,26.80
2023-04-21T09:03:01.757Z,26.84
2023-04-21T09:04:00.253Z,26.89
2023-04-21T09:05:00.421Z,26.93
2023-04-21T09:06:00.558Z,26.95
2023-04-21T09:07:00.067Z,26.95
2023-04-21T09:08:00.064Z,26.98
2023-04-21T09:09:00.133Z,27.00
2023-04-21T09:10:00.062Z,26.98
2023-04-21T09:11:00.402Z,27.01
2023-04-21T09:12:00.033Z,27.04
2023-04-21T09:13:00.002Z,27.05
2023-04-21T09:14:00.004Z,27.10
2023-04-21T09:14:59.973Z,27.08
2023-04-21T09:16:00.377Z,27.11
2023-04-21T09:16:59.957Z,27.14
2023-04-21T09:18:00.055Z,27.17
2023-04-21T09:18:59.939Z,27.15
2023-04-21T09:19:59.906Z,27.14
2023-04-21T09:20:59.877Z,27.18
2023-04-21T09:21:59.926Z,27.18
2023-04-21T09:22:59.894Z,27.17
2023-04-21T09:23:59.884Z,27.14
2023-04-21T09:24:59.833Z,27.14
2023-04-21T09:25:59.835Z,27.17
2023-04-21T09:26:59.868Z,27.15
2023-04-21T09:27:59.870Z,27.15
2023-04-21T09:28:59.871Z,27.10
2023-04-21T09:29:59.835Z,27.10
2023-04-21T09:30:59.861Z,27.10
2023-04-21T09:31:59.819Z,27.07
2023-04-21T09:32:59.828Z,27.08
2023-04-21T09:34:01.051Z,27.13
2023-04-21T09:34:59.770Z,27.17
2023-04-21T09:35:59.757Z,27.15
2023-04-21T09:36:59.751Z,27.17
2023-04-21T09:37:59.720Z,27.21
2023-04-21T09:39:24.356Z,27.21
2023-04-21T09:40:59.607Z,27.28
2023-04-21T09:41:59.538Z,27.24
2023-04-21T09:42:59.546Z,27.23
2023-04-21T09:43:59.490Z,27.08
2023-04-21T09:45:16.519Z,26.95
2023-04-21T09:46:00.416Z,26.87
2023-04-21T09:46:59.338Z,26.80
2023-04-21T09:47:59.365Z,26.79
2023-04-21T09:48:59.277Z,26.80
2023-04-21T09:49:59.238Z,26.80
2023-04-21T09:53:00.090Z,26.95
2023-04-21T09:53:59.035Z,26.98
2023-04-21T09:54:59.022Z,27.03
2023-04-21T09:55:58.968Z,27.05
2023-04-21T09:56:58.903Z,27.11
2023-04-21T09:57:58.900Z,27.18
2023-04-21T09:58:58.809Z,27.17
2023-04-21T09:59:58.755Z,27.21
2023-04-21T10:00:58.689Z,27.24
2023-04-21T10:01:58.958Z,27.25
2023-04-21T10:02:58.828Z,27.27
2023-04-21T10:03:58.687Z,27.30
2023-04-21T10:04:58.865Z,27.31
2023-04-21T10:05:58.482Z,27.31
2023-04-21T10:06:58.394Z,27.31
2023-04-21T10:07:58.365Z,27.33
2023-04-21T10:08:58.302Z,27.34
2023-04-21T10:09:58.312Z,27.35
2023-04-21T10:10:58.252Z,27.37
2023-04-21T10:11:58.182Z,27.35
2023-04-21T10:12:58.117Z,27.35
2023-04-21T10:13:58.070Z,27.37
2023-04-21T10:14:58.051Z,27.37
2023-04-21T10:15:57.962Z,27.38
2023-04-21T10:16:57.941Z,27.37
2023-04-21T10:17:57.878Z,27.42
2023-04-21T10:18:57.789Z,27.42
2023-04-21T10:19:57.757Z,27.45
2023-04-21T10:20:57.696Z,27.49
2023-04-21T10:21:57.918Z,27.54
2023-04-21T10:22:57.544Z,27.56
2023-04-21T10:23:57.523Z,27.58
2023-04-21T10:24:57.465Z,27.58
2023-04-21T10:25:57.402Z,27.58
2023-04-21T10:26:57.334Z,27.58
2023-04-21T10:27:57.314Z,27.59
2023-04-21T10:28:57.247Z,27.56
2023-04-21T10:29:57.321Z,27.54
2023-04-21T10:30:57.114Z,27.54
2023-04-21T10:31:57.952Z,27.52
2023-04-21T10:32:57.128Z,27.52
2023-04-21T10:33:57.068Z,27.51
2023-04-21T10:34:57.033Z,27.49
2023-04-21T10:35:57.031Z,27.45
2023-04-21T10:36:57.442Z,27.44
2023-04-21T10:37:56.993Z,27.45
2023-04-21T10:38:56.970Z,27.42
2023-04-21T10:39:56.931Z,27.42
2023-04-21T10:40:56.889Z,27.45
2023-04-21T10:41:56.930Z,27.48
2023-04-21T10:42:56.836Z,27.48
2023-04-21T10:43:56.824Z,27.54
2023-04-21T10:44:56.804Z,27.52
2023-04-21T10:45:56.774Z,27.56
2023-04-21T10:46:56.949Z,27.56
2023-04-21T10:47:56.821Z,27.58
2023-04-21T10:48:56.711Z,27.62
2023-04-21T10:49:56.728Z,27.62
2023-04-21T10:50:56.690Z,27.62
2023-04-21T10:51:56.676Z,27.64
2023-04-21T10:52:56.705Z,27.68
2023-04-21T10:53:56.800Z,27.66
2023-04-21T10:54:56.671Z,27.69
2023-04-21T10:55:56.645Z,27.71
2023-04-21T10:56:57.440Z,27.71
2023-04-21T10:57:56.678Z,27.73
2023-04-21T10:58:56.661Z,27.73
2023-04-21T10:59:56.671Z,27.75
2023-04-21T11:00:56.743Z,27.75
2023-04-21T11:01:56.681Z,27.76
2023-04-21T11:02:56.799Z,27.78
2023-04-21T11:03:56.806Z,27.79
2023-04-21T11:04:57.214Z,27.78
2023-04-21T11:05:56.675Z,27.81
2023-04-21T11:06:56.928Z,27.79
2023-04-21T11:07:56.775Z,27.82
2023-04-21T11:08:56.613Z,27.84
2023-04-21T11:09:56.639Z,27.84
2023-04-21T11:10:56.634Z,27.82
2023-04-21T11:11:56.957Z,27.85
2023-04-21T11:12:56.632Z,27.84
2023-04-21T11:13:56.620Z,27.86
2023-04-21T11:14:56.636Z,27.85
2023-04-21T11:15:56.813Z,27.85
2023-04-21T11:16:56.701Z,27.85
2023-04-21T11:17:56.697Z,27.89
2023-04-21T11:18:56.664Z,27.89
2023-04-21T11:19:56.650Z,27.86
2023-04-21T11:20:56.678Z,27.88
2023-04-21T11:21:56.653Z,27.89
2023-04-21T11:22:56.924Z,27.89
2023-04-21T11:23:56.662Z,27.88
2023-04-21T11:24:56.623Z,27.89
2023-04-21T11:25:56.690Z,27.92
2023-04-21T11:26:56.692Z,27.91
2023-04-21T11:27:56.648Z,27.92
2023-04-21T11:28:56.618Z,27.92
2023-04-21T11:29:56.613Z,27.91
2023-04-21T11:30:56.586Z,27.92
2023-04-21T11:31:56.591Z,27.92
2023-04-21T11:32:56.980Z,27.93
2023-04-21T11:33:56.592Z,27.92
2023-04-21T11:34:56.580Z,27.95
2023-04-21T11:35:56.534Z,27.95
2023-04-21T11:36:56.529Z,27.93
2023-04-21T11:37:56.592Z,27.95
2023-04-21T11:38:56.537Z,27.95
2023-04-21T11:39:56.540Z,27.95
2023-04-21T11:40:56.543Z,27.95
2023-04-21T11:41:56.523Z,27.95
2023-04-21T11:42:56.559Z,27.95
2023-04-21T11:43:56.530Z,27.93
2023-04-21T11:44:56.703Z,27.96
2023-04-21T11:45:56.553Z,27.93
2023-04-21T11:46:56.513Z,27.97
2023-04-21T11:47:56.555Z,27.95
2023-04-21T11:48:56.500Z,27.95
2023-04-21T11:49:56.699Z,27.95
2023-04-21T11:50:56.497Z,27.96
2023-04-21T11:51:56.468Z,27.95
2023-04-21T11:52:56.507Z,27.95
2023-04-21T11:53:56.486Z,27.97
2023-04-21T11:54:56.511Z,27.96
2023-04-21T11:55:56.774Z,27.95
2023-04-21T11:56:56.495Z,27.92
2023-04-21T11:57:56.476Z,27.95
2023-04-21T11:58:56.457Z,27.93
2023-04-21T11:59:56.502Z,27.93
2023-04-21T12:00:56.656Z,27.95
2023-04-21T12:01:56.465Z,27.93
2023-04-21T12:02:56.610Z,27.93
2023-04-21T12:03:56.630Z,27.95
2023-04-21T12:04:56.712Z,27.93
2023-04-21T12:05:56.632Z,27.95
2023-04-21T12:06:56.448Z,27.93
2023-04-21T12:07:56.569Z,27.93
2023-04-21T12:08:56.439Z,27.93
2023-04-21T12:09:56.448Z,27.95
2023-04-21T12:10:56.453Z,27.92
2023-04-21T12:11:56.427Z,27.93
2023-04-21T12:12:56.420Z,27.92
2023-04-21T12:13:56.422Z,27.92
2023-04-21T12:14:56.403Z,27.92
2023-04-21T12:15:56.442Z,27.95
2023-04-21T12:16:56.416Z,27.93
2023-04-21T12:17:56.419Z,27.92
2023-04-21T12:18:56.415Z,27.93
2023-04-21T12:19:56.363Z,27.93
2023-04-21T12:20:56.365Z,27.93
2023-04-21T12:21:56.361Z,27.89
2023-04-21T12:22:56.389Z,27.91
2023-04-21T12:23:56.358Z,27.91
2023-04-21T12:24:56.352Z,27.92
2023-04-21T12:25:56.331Z,27.88
2023-04-21T12:26:56.327Z,27.89
2023-04-21T12:27:56.282Z,27.89
2023-04-21T12:28:56.270Z,27.92
2023-04-21T12:29:56.285Z,27.89
2023-04-21T12:30:56.577Z,27.89
2023-04-21T12:31:56.729Z,27.89
2023-04-21T12:32:56.279Z,27.89
2023-04-21T12:33:56.291Z,27.89
2023-04-21T12:34:56.201Z,27.88
2023-04-21T12:35:56.163Z,27.86
2023-04-21T12:36:56.158Z,27.82
2023-04-21T12:37:56.152Z,27.81
2023-04-21T12:38:56.132Z,27.78
2023-04-21T12:39:56.173Z,27.75
2023-04-21T12:40:56.094Z,27.72
2023-04-21T12:41:56.107Z,27.71
2023-04-21T12:42:56.040Z,27.72
2023-04-21T12:43:56.034Z,27.69
2023-04-21T12:44:56.001Z,27.69
2023-04-21T12:45:55.965Z,27.71
2023-04-21T12:46:55.956Z,27.68
2023-04-21T12:47:55.978Z,27.69
2023-04-21T12:48:55.909Z,27.69
2023-04-21T12:49:55.901Z,27.69
2023-04-21T12:50:55.888Z,27.72
2023-04-21T12:51:55.847Z,27.71
2023-04-21T12:52:55.824Z,27.71
2023-04-21T12:53:55.819Z,27.73
2023-04-21T12:54:55.783Z,27.72
2023-04-21T12:56:03.989Z,27.72